Time;durP1;ratioP1;P1;durP2;ratioP2;P2;SDS_P1;SDS_P2;PMS_P1;PMS_P2;Temp;Humidity;BMP_temperature;BMP_pressure;BME280_temperature;BME280_humidity;BME280_pressure;Samples;Min_cycle;Max_cycle;Signal;HPM_P1;HPM_P2
2023/08/11 00:00:08;;;;;;;4.53;3.20;;;;;;;16.18;100.00;98587.63;5054858;28;20574;-74
2023/08/11 00:02:36;;;;;;;4.63;3.40;;;;;;;16.08;100.00;98577.53;5055138;28;20205;-74
2023/08/11 00:05:03;;;;;;;5.03;3.40;;;;;;;16.07;100.00;98575.91;5055044;28;20235;-74
2023/08/11 00:07:29;;;;;;;4.00;3.70;;;;;;;16.13;100.00;98574.94;5054727;28;20577;-74
2023/08/11 00:09:56;;;;;;;3.80;3.40;;;;;;;15.95;100.00;98577.84;5053921;28;20564;-74
2023/08/11 00:12:22;;;;;;;6.57;4.07;;;;;;;15.95;100.00;98577.00;5054872;28;20212;-74
2023/08/11 00:14:49;;;;;;;5.27;3.57;;;;;;;15.93;100.00;98579.91;5054794;28;20212;-74
2023/08/11 00:17:15;;;;;;;5.50;3.80;;;;;;;15.96;100.00;98578.66;5054542;28;20212;-74
2023/08/11 00:19:42;;;;;;;3.80;3.50;;;;;;;16.03;100.00;98576.63;5054413;28;20232;-74
2023/08/11 00:22:09;;;;;;;4.07;3.77;;;;;;;16.02;100.00;98588.41;5054713;28;20291;-74
2023/08/11 00:24:35;;;;;;;4.40;3.50;;;;;;;16.01;100.00;98581.44;5054693;28;20348;-74
2023/08/11 00:27:03;;;;;;;4.33;3.80;;;;;;;16.00;100.00;98580.59;5054688;28;20300;-74
2023/08/11 00:29:31;;;;;;;5.00;4.00;;;;;;;15.99;100.00;98576.31;5054245;28;20224;-74
2023/08/11 00:31:58;;;;;;;4.73;4.00;;;;;;;16.01;100.00;98587.59;5054559;28;20213;-74
2023/08/11 00:34:24;;;;;;;6.80;3.87;;;;;;;15.98;100.00;98590.78;5054592;28;20228;-74
2023/08/11 00:36:50;;;;;;;5.93;3.87;;;;;;;15.95;100.00;98593.09;5054443;28;20208;-74
2023/08/11 00:39:17;;;;;;;4.60;4.10;;;;;;;15.99;100.00;98584.34;5053916;28;20420;-74
2023/08/11 00:41:43;;;;;;;5.37;4.20;;;;;;;15.96;100.00;98584.81;5054309;28;20205;-74
2023/08/11 00:44:10;;;;;;;5.13;4.40;;;;;;;15.97;100.00;98585.63;5054331;28;20224;-74
2023/08/11 00:46:37;;;;;;;5.17;4.27;;;;;;;15.98;100.00;98585.41;5054256;28;20231;-74
2023/08/11 00:49:04;;;;;;;4.50;3.97;;;;;;;15.96;100.00;98587.50;5054181;28;20229;-74
2023/08/11 00:51:31;;;;;;;4.80;4.40;;;;;;;15.93;100.00;98587.97;5036537;28;20575;-74
2023/08/11 00:53:58;;;;;;;4.90;4.20;;;;;;;15.89;100.00;98588.69;5054206;28;20276;-74
2023/08/11 00:56:25;;;;;;;5.37;4.60;;;;;;;15.80;100.00;98590.13;5053868;28;20299;-74
2023/08/11 00:58:52;;;;;;;6.53;4.50;;;;;;;15.79;100.00;98581.28;5054011;28;20231;-74
2023/08/11 01:01:19;;;;;;;5.27;4.70;;;;;;;15.74;100.00;98581.19;5053879;28;20568;-74
2023/08/11 01:03:47;;;;;;;4.87;4.30;;;;;;;15.73;100.00;98584.91;5053965;28;20232;-74
2023/08/11 01:06:40;;;;;;;5.37;4.60;;;;;;;15.75;100.00;98587.38;5053925;28;20275;-74
2023/08/11 01:09:27;;;;;;;5.07;4.30;;;;;;;15.71;100.00;98579.00;5053952;28;20225;-74
2023/08/11 01:12:16;;;;;;;5.50;4.20;;;;;;;15.75;100.00;98582.00;5053767;28;20205;-74
2023/08/11 01:15:07;;;;;;;5.13;4.63;;;;;;;15.80;100.00;98584.78;5053286;28;20296;-74
2023/08/11 01:17:35;;;;;;;7.73;4.53;;;;;;;15.85;100.00;98587.56;5053439;28;20538;-74
2023/08/11 01:20:08;;;;;;;8.50;4.30;;;;;;;15.81;100.00;98576.50;5035630;28;20727;-74
2023/08/11 01:22:37;;;;;;;6.07;4.77;;;;;;;15.86;100.00;98579.28;5053388;28;20193;-74
2023/08/11 01:25:03;;;;;;;5.37;4.10;;;;;;;15.79;100.00;98593.88;5053610;28;20229;-74
2023/08/11 01:27:30;;;;;;;5.00;4.30;;;;;;;15.74;100.00;98589.22;5054452;28;20205;-74
2023/08/11 01:29:56;;;;;;;6.80;4.43;;;;;;;15.71;100.00;98595.06;5053548;28;20225;-74
2023/08/11 01:32:23;;;;;;;5.17;4.20;;;;;;;15.68;100.00;98587.50;5053358;28;20672;-74
2023/08/11 01:34:49;;;;;;;5.33;4.53;;;;;;;15.67;100.00;98601.97;5053723;28;20219;-74
2023/08/11 01:37:15;;;;;;;4.90;4.37;;;;;;;15.66;100.00;98600.34;5053558;28;20209;-74
2023/08/11 01:39:42;;;;;;;5.47;4.30;;;;;;;15.61;100.00;98604.78;5052910;28;20739;-74
2023/08/11 01:42:08;;;;;;;5.03;4.53;;;;;;;15.56;100.00;98602.78;5053257;28;20205;-74
2023/08/11 01:44:35;;;;;;;5.10;4.57;;;;;;;15.48;100.00;98603.19;5035882;28;20564;-74
2023/08/11 01:47:04;;;;;;;6.63;4.60;;;;;;;15.51;100.00;98608.06;5053460;28;20288;-74
2023/08/11 01:49:31;;;;;;;5.43;4.70;;;;;;;15.53;100.00;98611.31;5053061;28;20225;-74
2023/08/11 01:51:57;;;;;;;5.37;4.63;;;;;;;15.55;100.00;98609.22;5053458;28;20211;-74
2023/08/11 01:54:24;;;;;;;5.50;5.00;;;;;;;15.48;100.00;98603.19;5053014;28;20205;-74
2023/08/11 01:56:51;;;;;;;5.40;4.90;;;;;;;15.46;100.00;98597.22;5053426;28;20207;-74
2023/08/11 01:59:18;;;;;;;5.53;5.03;;;;;;;15.36;100.00;98593.53;5053214;28;20225;-74
2023/08/11 02:01:44;;;;;;;5.80;4.43;;;;;;;15.32;100.00;98597.69;5053330;28;20207;-74
2023/08/11 02:04:11;;;;;;;5.40;4.87;;;;;;;15.34;100.00;98593.75;5053151;28;20231;-74
2023/08/11 02:06:39;;;;;;;6.70;5.03;;;;;;;15.32;100.00;98590.47;5053266;28;20553;-74
2023/08/11 02:09:08;;;;;;;6.37;5.30;;;;;;;15.40;100.00;98592.81;5053256;28;20225;-74
2023/08/11 02:11:36;;;;;;;7.10;5.23;;;;;;;15.27;100.00;98584.19;5052948;28;20722;-74
2023/08/11 02:14:03;;;;;;;6.33;4.63;;;;;;;15.24;100.00;98579.31;5052878;28;20657;-74
2023/08/11 02:16:30;;;;;;;6.30;4.90;;;;;;;15.16;100.00;98585.03;5052737;28;20231;-74
2023/08/11 02:18:56;;;;;;;6.47;5.10;;;;;;;15.15;100.00;98580.72;5053019;28;20227;-74
2023/08/11 02:21:22;;;;;;;6.30;5.07;;;;;;;15.21;100.00;98580.59;5053106;28;20205;-74
2023/08/11 02:23:49;;;;;;;8.23;4.57;;;;;;;15.17;100.00;98587.47;5052992;28;20575;-74
2023/08/11 02:26:16;;;;;;;7.23;4.87;;;;;;;15.13;100.00;98583.63;5053172;28;20300;-74
2023/08/11 02:28:42;;;;;;;5.50;4.70;;;;;;;15.07;100.00;98583.75;5052719;28;20232;-74
2023/08/11 02:31:09;;;;;;;5.63;4.80;;;;;;;15.10;100.00;98584.09;5052772;28;20691;-74
2023/08/11 02:33:36;;;;;;;6.87;4.90;;;;;;;15.06;100.00;98577.56;5053912;28;20231;-74
2023/08/11 02:36:02;;;;;;;5.23;4.50;;;;;;;15.04;100.00;98585.03;5056697;28;20201;-74
2023/08/11 02:38:29;;;;;;;5.20;4.70;;;;;;;14.96;100.00;98576.53;5055786;28;20233;-74
2023/08/11 02:40:55;;;;;;;4.60;4.10;;;;;;;14.94;100.00;98584.81;5056285;28;20193;-74
2023/08/11 02:43:22;;;;;;;6.83;4.73;;;;;;;14.94;100.00;98578.66;5056206;28;20213;-74
2023/08/11 02:45:48;;;;;;;5.83;5.03;;;;;;;14.90;100.00;98578.31;5056616;28;20276;-74
2023/08/11 02:48:15;;;;;;;7.23;4.80;;;;;;;14.93;100.00;98577.03;5056280;28;20205;-74
2023/08/11 02:50:41;;;;;;;4.93;4.43;;;;;;;14.95;100.00;98580.28;5056522;28;20219;-74
2023/08/11 02:53:08;;;;;;;6.63;4.33;;;;;;;14.95;100.00;98573.06;5056302;28;20205;-74
2023/08/11 02:55:34;;;;;;;4.53;4.10;;;;;;;14.86;100.00;98577.13;5055730;28;20205;-74
2023/08/11 02:58:00;;;;;;;4.70;4.30;;;;;;;14.84;100.00;98576.53;5056280;28;20202;-74
2023/08/11 03:00:28;;;;;;;5.60;4.67;;;;;;;14.96;100.00;98577.38;5055962;28;20251;-74
2023/08/11 03:02:56;;;;;;;5.73;4.90;;;;;;;15.00;100.00;98581.19;5056787;28;20228;-74
2023/08/11 03:05:23;;;;;;;6.30;4.63;;;;;;;14.96;100.00;98587.25;5055943;28;20229;-74
2023/08/11 03:07:49;;;;;;;4.67;4.17;;;;;;;14.93;100.00;98580.50;5055846;28;20750;-74
2023/08/11 03:10:16;;;;;;;5.33;4.23;;;;;;;14.81;100.00;98577.03;5055887;28;20225;-74
2023/08/11 03:12:42;;;;;;;6.43;4.60;;;;;;;14.83;100.00;98574.13;5055633;28;20206;-74
2023/08/11 03:15:09;;;;;;;5.43;4.53;;;;;;;14.86;100.00;98576.31;5056020;28;20212;-74
2023/08/11 03:17:36;;;;;;;6.13;4.13;;;;;;;14.77;100.00;98581.22;5055572;28;20207;-74
2023/08/11 03:20:03;;;;;;;5.73;4.80;;;;;;;14.83;100.00;98585.63;5055846;28;20321;-74
2023/08/11 03:22:29;;;;;;;5.30;4.80;;;;;;;14.80;100.00;98585.28;5055716;28;20209;-74
2023/08/11 03:24:57;;;;;;;5.13;4.63;;;;;;;14.82;100.00;98575.97;5055412;28;20228;-74
2023/08/11 03:27:23;;;;;;;7.60;4.73;;;;;;;14.86;100.00;98584.34;5055814;28;20202;-74
2023/08/11 03:29:50;;;;;;;7.63;4.83;;;;;;;14.85;100.00;98583.56;5055342;28;20803;-74
2023/08/11 03:32:16;;;;;;;5.30;4.80;;;;;;;14.85;100.00;98585.41;5055615;28;20232;-74
2023/08/11 03:34:42;;;;;;;5.27;4.70;;;;;;;14.81;100.00;98578.88;5055260;28;20205;-74
2023/08/11 03:37:09;;;;;;;6.10;4.80;;;;;;;14.78;100.00;98585.50;5055337;28;20209;-74
2023/08/11 03:39:35;;;;;;;6.30;4.27;;;;;;;14.82;100.00;98570.63;5054925;28;20243;-74
2023/08/11 03:42:01;;;;;;;7.97;4.57;;;;;;;14.76;100.00;98582.28;5055187;28;20628;-74
2023/08/11 03:44:28;;;;;;;7.20;5.00;;;;;;;14.78;100.00;98577.47;5054768;28;20224;-74
2023/08/11 03:46:54;;;;;;;6.77;4.57;;;;;;;14.70;100.00;98577.03;5055212;28;20213;-74
2023/08/11 03:49:20;;;;;;;7.07;4.50;;;;;;;14.68;100.00;98581.78;5055188;28;20229;-74
2023/08/11 03:51:47;;;;;;;8.23;4.60;;;;;;;14.71;100.00;98579.47;5055426;28;20202;-74
2023/08/11 03:54:13;;;;;;;6.07;4.57;;;;;;;14.72;100.00;98583.78;5054913;28;20677;-74
2023/08/11 03:56:40;;;;;;;7.20;4.73;;;;;;;14.67;100.00;98583.66;5054742;28;20209;-74
2023/08/11 03:59:06;;;;;;;5.60;4.33;;;;;;;14.79;100.00;98586.34;5054433;28;20589;-74
2023/08/11 04:01:33;;;;;;;4.77;4.33;;;;;;;14.82;100.00;98588.53;5054601;28;20205;-74
2023/08/11 04:03:59;;;;;;;5.33;4.20;;;;;;;14.80;100.00;98593.31;5054174;28;20201;-77
2023/08/11 04:06:31;;;;;;;6.87;4.70;;;;;;;14.76;100.00;98584.13;5053994;28;20696;-77
2023/08/11 04:08:58;;;;;;;6.37;4.27;;;;;;;14.74;100.00;98589.69;5050761;28;20229;-77
2023/08/11 04:11:24;;;;;;;5.70;5.10;;;;;;;14.74;100.00;98588.91;5053989;28;20201;-77
2023/08/11 04:13:51;;;;;;;6.63;5.43;;;;;;;14.82;100.00;98586.69;5054406;28;20205;-77
2023/08/11 04:16:17;;;;;;;8.40;5.23;;;;;;;14.81;100.00;98593.09;5054371;28;20205;-78
2023/08/11 04:18:44;;;;;;;8.97;4.93;;;;;;;14.78;100.00;98592.72;5054720;28;20229;-78
2023/08/11 04:21:10;;;;;;;8.33;5.30;;;;;;;14.71;100.00;98592.03;5054324;28;20201;-78
2023/08/11 04:23:37;;;;;;;7.53;4.60;;;;;;;14.83;100.00;98588.31;5053960;28;20212;-77
2023/08/11 04:26:10;;;;;;;7.10;4.80;;;;;;;14.90;100.00;98586.34;5054036;28;20260;-78
2023/08/11 04:28:45;;;;;;;7.67;4.67;;;;;;;14.97;100.00;98578.19;5055508;28;20767;-78
2023/08/11 04:31:44;;;;;;;5.13;4.60;;;;;;;15.00;100.00;98589.22;5055550;28;20213;-78
2023/08/11 04:34:16;;;;;;;5.10;4.37;;;;;;;14.99;100.00;98584.94;5062062;28;20200;-78
2023/08/11 04:36:42;;;;;;;5.83;4.90;;;;;;;15.12;100.00;98579.34;5064702;28;20198;-78
2023/08/11 04:39:10;;;;;;;6.43;4.80;;;;;;;15.17;100.00;98587.47;5064851;28;20229;-78
2023/08/11 04:42:07;;;;;;;7.07;4.60;;;;;;;15.12;100.00;98579.34;5064010;28;20201;-78
2023/08/11 04:44:34;;;;;;;6.07;5.13;;;;;;;15.20;100.00;98583.50;5065235;28;20205;-78
2023/08/11 04:47:00;;;;;;;6.87;4.87;;;;;;;15.22;100.00;98576.03;5070409;28;20296;-78
2023/08/11 04:49:26;;;;;;;5.83;4.80;;;;;;;15.27;100.00;98579.66;5068014;28;20553;-78
2023/08/11 04:51:53;;;;;;;6.83;4.53;;;;;;;15.30;100.00;98584.56;5069272;28;20205;-78
2023/08/11 04:54:19;;;;;;;6.13;4.50;;;;;;;15.33;100.00;98584.06;5069427;28;20215;-78
2023/08/11 04:56:46;;;;;;;6.67;5.03;;;;;;;15.35;100.00;98576.66;5067455;28;20205;-78
2023/08/11 04:59:12;;;;;;;6.13;4.63;;;;;;;15.39;100.00;98585.03;5063926;28;20289;-79
2023/08/11 05:01:39;;;;;;;7.30;4.57;;;;;;;15.42;100.00;98582.69;5057764;28;20227;-78
2023/08/11 05:04:05;;;;;;;7.37;4.27;;;;;;;15.46;100.00;98583.84;5057616;28;20209;-78
2023/08/11 05:06:32;;;;;;;7.87;4.53;;;;;;;15.52;100.00;98598.16;5058230;28;20229;-78
2023/08/11 05:08:58;;;;;;;6.67;4.83;;;;;;;15.53;100.00;98587.22;5057239;28;20312;-78
2023/08/11 05:11:26;;;;;;;8.07;4.63;;;;;;;15.54;100.00;98586.16;5053335;28;20213;-78
2023/08/11 05:13:54;;;;;;;5.77;5.00;;;;;;;15.59;100.00;98588.09;5053968;28;20205;-78
2023/08/11 05:16:20;;;;;;;6.23;4.57;;;;;;;15.64;100.00;98594.38;5053190;28;20206;-78
2023/08/11 05:18:46;;;;;;;7.47;4.63;;;;;;;15.68;100.00;98594.72;5053586;28;20320;-79
2023/08/11 05:21:14;;;;;;;5.70;5.17;;;;;;;15.72;100.00;98591.34;5053860;28;20691;-78
2023/08/11 05:23:40;;;;;;;5.57;4.80;;;;;;;15.73;100.00;98595.63;5053237;28;20216;-78
2023/08/11 05:26:06;;;;;;;6.00;4.40;;;;;;;15.75;100.00;98604.25;5055836;28;20765;-78
2023/08/11 05:28:33;;;;;;;7.63;4.83;;;;;;;15.87;100.00;98610.38;5055565;28;20221;-78
2023/08/11 05:31:01;;;;;;;8.10;5.03;;;;;;;15.90;100.00;98612.59;5055307;28;20205;-78
2023/08/11 05:33:27;;;;;;;6.60;5.07;;;;;;;15.94;100.00;98607.56;5054058;28;20208;-78
2023/08/11 05:35:53;;;;;;;8.57;4.80;;;;;;;15.98;100.00;98616.75;5053875;28;20205;-78
2023/08/11 05:38:22;;;;;;;6.07;4.27;;;;;;;16.04;100.00;98616.63;5054714;28;20205;-78
2023/08/11 05:40:49;;;;;;;5.13;4.43;;;;;;;16.15;100.00;98621.09;5053514;28;20276;-74
2023/08/11 05:43:16;;;;;;;7.43;4.70;;;;;;;16.13;100.00;98623.22;5052799;28;20205;-74
2023/08/11 05:45:42;;;;;;;5.57;4.63;;;;;;;16.22;100.00;98624.47;5052829;28;20692;-74
2023/08/11 05:48:09;;;;;;;7.00;4.70;;;;;;;16.30;100.00;98618.72;5052975;28;20673;-74
2023/08/11 05:50:35;;;;;;;7.73;4.57;;;;;;;16.39;100.00;98621.81;5052752;28;20209;-74
2023/08/11 05:53:01;;;;;;;7.13;4.30;;;;;;;16.49;100.00;98620.16;5052713;28;20216;-74
2023/08/11 05:55:29;;;;;;;6.77;4.87;;;;;;;16.59;100.00;98628.38;5052881;28;20205;-74
2023/08/11 05:57:55;;;;;;;6.70;5.00;;;;;;;16.64;100.00;98624.97;5052968;28;20205;-74
2023/08/11 06:00:22;;;;;;;6.07;4.70;;;;;;;16.73;100.00;98618.94;5052865;28;20232;-74
2023/08/11 06:02:48;;;;;;;5.40;4.63;;;;;;;16.71;100.00;98620.25;5052977;28;20205;-74
2023/08/11 06:05:15;;;;;;;6.40;4.70;;;;;;;16.84;100.00;98628.78;5052598;28;20692;-74
2023/08/11 06:07:41;;;;;;;6.30;4.80;;;;;;;16.91;100.00;98616.00;5053787;28;20207;-74
2023/08/11 06:10:08;;;;;;;5.87;4.40;;;;;;;16.97;100.00;98627.63;5056278;28;20730;-74
2023/08/11 06:12:34;;;;;;;5.87;4.90;;;;;;;16.95;100.00;98616.31;5056646;28;20211;-74
2023/08/11 06:15:03;;;;;;;7.87;4.40;;;;;;;17.05;100.00;98622.66;5056733;28;20209;-74
2023/08/11 06:17:29;;;;;;;5.13;4.40;;;;;;;17.06;100.00;98616.22;5056730;28;20212;-74
2023/08/11 06:19:57;;;;;;;4.67;4.20;;;;;;;17.25;100.00;98619.44;5056252;28;20236;-74
2023/08/11 06:22:23;;;;;;;5.43;4.20;;;;;;;17.19;100.00;98621.25;5056667;28;20223;-74
2023/08/11 06:24:50;;;;;;;6.20;4.13;;;;;;;17.21;100.00;98616.44;5056557;28;20591;-75
2023/08/11 06:27:16;;;;;;;4.83;4.17;;;;;;;17.28;100.00;98621.66;5056492;28;20205;-74
2023/08/11 06:29:43;;;;;;;5.27;4.03;;;;;;;17.31;100.00;98623.81;5056769;28;20230;-74
2023/08/11 06:32:09;;;;;;;6.73;4.20;;;;;;;17.60;100.00;98617.28;5056436;28;20288;-74
2023/08/11 06:34:34;;;;;;;5.00;4.07;;;;;;;17.63;100.00;98617.56;5056240;28;20215;-74
2023/08/11 06:37:01;;;;;;;4.73;4.30;;;;;;;17.67;100.00;98625.94;5056315;28;20201;-74
2023/08/11 06:39:27;;;;;;;5.33;4.47;;;;;;;17.66;100.00;98621.66;5055949;28;20247;-74
2023/08/11 06:41:54;;;;;;;7.47;5.03;;;;;;;17.76;100.00;98614.50;5056376;28;20292;-74
2023/08/11 06:44:20;;;;;;;6.20;4.13;;;;;;;18.05;100.00;98617.81;5056179;28;20211;-74
2023/08/11 06:46:46;;;;;;;5.23;4.17;;;;;;;17.88;100.00;98617.06;5056078;28;20233;-74
2023/08/11 06:49:13;;;;;;;5.27;4.53;;;;;;;17.90;100.00;98631.06;5055898;28;20738;-74
2023/08/11 06:51:39;;;;;;;9.63;5.00;;;;;;;17.87;100.00;98628.91;5055957;28;20210;-74
2023/08/11 06:54:05;;;;;;;6.67;4.60;;;;;;;18.00;100.00;98631.22;5056112;28;20231;-74
2023/08/11 06:56:32;;;;;;;7.57;4.60;;;;;;;18.05;100.00;98618.59;5056041;28;20204;-74
2023/08/11 06:58:58;;;;;;;5.53;4.47;;;;;;;18.07;100.00;98619.19;5055885;28;20235;-74
2023/08/11 07:01:25;;;;;;;5.87;4.30;;;;;;;18.11;100.00;98630.25;5055987;28;20212;-74
2023/08/11 07:03:51;;;;;;;5.90;4.57;;;;;;;18.33;100.00;98621.06;5055825;28;20209;-74
2023/08/11 07:06:18;;;;;;;9.07;4.80;;;;;;;18.53;100.00;98629.34;5055687;28;20221;-74
2023/08/11 07:08:44;;;;;;;6.60;4.17;;;;;;;18.50;100.00;98627.16;5055482;28;20768;-74
2023/08/11 07:11:11;;;;;;;5.63;4.13;;;;;;;18.51;100.00;98623.41;5055588;28;20691;-74
2023/08/11 07:13:37;;;;;;;5.20;4.60;;;;;;;18.59;100.00;98620.25;5056215;28;20209;-74
2023/08/11 07:16:03;;;;;;;8.77;4.80;;;;;;;18.65;100.00;98626.50;5055660;28;20204;-74
2023/08/11 07:18:30;;;;;;;8.40;5.10;;;;;;;18.69;100.00;98624.91;5055632;28;20231;-75
2023/08/11 07:20:56;;;;;;;7.30;4.80;;;;;;;18.81;100.00;98636.31;5055146;28;20217;-74
2023/08/11 07:23:23;;;;;;;7.97;4.43;;;;;;;19.08;100.00;98634.34;5055659;28;20205;-74
2023/08/11 07:25:49;;;;;;;5.33;4.10;;;;;;;19.27;100.00;98633.72;5055595;28;20231;-74
2023/08/11 07:28:15;;;;;;;5.67;3.90;;;;;;;19.33;100.00;98631.88;5055274;28;20227;-74
2023/08/11 07:30:42;;;;;;;4.43;3.87;;;;;;;19.37;100.00;98633.78;5055387;28;20205;-74
2023/08/11 07:33:08;;;;;;;5.17;4.23;;;;;;;19.50;100.00;98630.63;5055441;28;20216;-74
2023/08/11 07:35:34;;;;;;;7.73;4.60;;;;;;;19.56;100.00;98628.75;5055362;28;20679;-74
2023/08/11 07:38:01;;;;;;;6.00;4.30;;;;;;;19.52;100.00;98628.47;5054931;28;20664;-74
2023/08/11 07:40:28;;;;;;;7.30;4.60;;;;;;;19.77;100.00;98636.69;5054872;28;20715;-74
2023/08/11 07:42:54;;;;;;;5.47;4.60;;;;;;;19.94;100.00;98641.88;5055035;28;20207;-74
2023/08/11 07:45:21;;;;;;;6.57;4.87;;;;;;;20.06;100.00;98641.63;5054475;28;20205;-74
2023/08/11 07:47:47;;;;;;;7.33;4.80;;;;;;;19.91;100.00;98644.28;5055107;28;20209;-74
2023/08/11 07:50:14;;;;;;;7.93;4.90;;;;;;;19.94;100.00;98654.56;5054680;28;20783;-74
2023/08/11 07:52:40;;;;;;;9.50;5.00;;;;;;;19.92;100.00;98645.91;5055260;28;20284;-74
2023/08/11 07:55:07;;;;;;;6.37;4.60;;;;;;;20.15;100.00;98651.69;5054955;28;20208;-74
2023/08/11 07:57:33;;;;;;;6.23;4.63;;;;;;;20.29;100.00;98646.59;5054608;28;20212;-74
2023/08/11 08:00:00;;;;;;;8.90;4.57;;;;;;;20.23;100.00;98644.97;5054770;28;20261;-74
2023/08/11 08:02:26;;;;;;;6.30;4.20;;;;;;;20.37;100.00;98648.78;5054870;28;20664;-74
2023/08/11 08:04:53;;;;;;;6.63;4.30;;;;;;;20.34;100.00;98652.03;5054615;28;20563;-74
2023/08/11 08:07:20;;;;;;;5.67;4.10;;;;;;;20.67;100.00;98649.63;5054558;28;20229;-74
2023/08/11 08:09:47;;;;;;;8.20;4.40;;;;;;;20.77;100.00;98648.84;5054727;28;20225;-74
2023/08/11 08:12:15;;;;;;;5.07;4.00;;;;;;;20.95;100.00;98656.44;5054397;28;20207;-74
2023/08/11 08:14:43;;;;;;;7.40;4.30;;;;;;;21.00;99.76;98664.53;5054588;28;20209;-74
2023/08/11 08:17:09;;;;;;;5.23;3.87;;;;;;;21.21;99.39;98660.75;5054651;28;20231;-74
2023/08/11 08:19:36;;;;;;;5.63;3.77;;;;;;;21.30;99.33;98653.72;5054297;28;20730;-74
2023/08/11 08:22:02;;;;;;;6.97;3.70;;;;;;;21.20;100.00;98653.72;5054518;28;20201;-74
2023/08/11 08:24:28;;;;;;;6.43;4.13;;;;;;;21.10;99.89;98653.72;5054528;28;20251;-74
2023/08/11 08:26:55;;;;;;;7.00;3.57;;;;;;;21.14;99.00;98658.31;5054184;28;20235;-74
2023/08/11 08:29:21;;;;;;;5.87;3.37;;;;;;;21.14;97.77;98660.19;5054588;28;20225;-74
2023/08/11 08:31:47;;;;;;;6.07;3.80;;;;;;;21.36;97.89;98652.59;5053294;28;20212;-74
2023/08/11 08:34:14;;;;;;;6.27;4.10;;;;;;;21.41;97.36;98653.41;5054124;28;20500;-74
2023/08/11 08:36:40;;;;;;;5.40;3.88;;;;;;;21.66;96.03;98653.34;5053899;28;20663;-74
2023/08/11 08:39:07;;;;;;;7.40;3.60;;;;;;;21.55;95.83;98653.63;5053915;28;20232;-74
2023/08/11 08:41:38;;;;;;;6.90;3.38;;;;;;;21.81;96.87;98647.09;5054001;28;20645;-74
2023/08/11 08:44:05;;;;;;;6.82;3.55;;;;;;;21.96;96.25;98647.03;5054145;28;20284;-74
2023/08/11 08:46:32;;;;;;;7.22;3.90;;;;;;;22.19;91.88;98649.06;5053475;28;20225;-74
2023/08/11 08:49:12;;;;;;;4.57;3.25;;;;;;;22.44;89.33;98655.19;5054137;28;20684;-74
2023/08/11 08:51:40;;;;;;;3.60;3.22;;;;;;;22.46;91.54;98646.78;5053813;28;20284;-74
2023/08/11 08:54:09;;;;;;;5.82;3.60;;;;;;;22.48;90.47;98641.91;5036403;28;20292;-75
2023/08/11 08:56:39;;;;;;;5.95;3.22;;;;;;;22.46;90.46;98646.78;5054044;28;20220;-74
2023/08/11 08:59:06;;;;;;;4.55;3.60;;;;;;;22.51;89.52;98649.47;5053555;28;20224;-74
2023/08/11 09:01:33;;;;;;;5.97;3.30;;;;;;;22.56;87.64;98644.03;5053445;28;20209;-74
2023/08/11 09:04:00;;;;;;;4.50;3.22;;;;;;;22.54;89.67;98641.59;5053781;28;20201;-75
2023/08/11 09:06:27;;;;;;;8.77;4.13;;;;;;;22.91;86.57;98641.03;5053680;28;20233;-74
2023/08/11 09:08:54;;;;;;;7.22;3.60;;;;;;;22.82;87.23;98643.56;5053192;28;20221;-75
2023/08/11 09:11:21;;;;;;;5.60;3.80;;;;;;;22.98;89.27;98636.09;5053095;28;20205;-74
2023/08/11 09:13:48;;;;;;;7.13;3.65;;;;;;;23.18;83.62;98630.47;5053267;28;20215;-74
2023/08/11 09:16:15;;;;;;;7.65;3.60;;;;;;;23.06;84.66;98630.88;5051845;28;20205;-75
2023/08/11 09:18:44;;;;;;;3.60;3.17;;;;;;;23.43;83.70;98630.28;5051298;28;20251;-75
2023/08/11 09:21:10;;;;;;;9.70;3.63;;;;;;;23.56;82.02;98629.59;5051790;28;20285;-74
2023/08/11 09:23:37;;;;;;;5.78;3.42;;;;;;;23.83;81.70;98624.41;5051169;28;20692;-74
2023/08/11 09:26:03;;;;;;;6.38;3.22;;;;;;;23.84;81.02;98621.34;5051292;28;20342;-74
2023/08/11 09:28:30;;;;;;;4.35;2.97;;;;;;;23.93;81.14;98625.06;5051171;28;20227;-74
2023/08/11 09:30:56;;;;;;;3.58;3.13;;;;;;;24.03;76.03;98619.53;5052038;28;20208;-74
2023/08/11 09:33:23;;;;;;;3.97;3.13;;;;;;;23.96;76.75;98618.25;5053368;28;20553;-74
2023/08/11 09:35:49;;;;;;;4.45;3.30;;;;;;;24.21;80.31;98618.75;5052804;28;20213;-75
2023/08/11 09:38:16;;;;;;;4.50;2.90;;;;;;;24.50;75.71;98615.88;5052806;28;20205;-75
2023/08/11 09:40:42;;;;;;;5.90;3.00;;;;;;;24.24;77.97;98618.16;5052877;28;20212;-74
2023/08/11 09:43:12;;;;;;;3.30;3.00;;;;;;;24.60;78.22;98618.47;5056545;28;20212;-74
2023/08/11 09:45:39;;;;;;;4.55;3.22;;;;;;;24.70;77.66;98613.66;5059472;28;20205;-74
2023/08/11 09:48:05;;;;;;;4.65;2.95;;;;;;;24.86;75.45;98622.38;5059103;28;20696;-76
2023/08/11 09:50:36;;;;;;;4.57;3.53;;;;;;;24.92;77.54;98619.28;5059654;28;20208;-75
2023/08/11 09:53:06;;;;;;;5.18;3.30;;;;;;;24.95;73.55;98618.72;5059858;28;20255;-75
2023/08/11 09:55:33;;;;;;;3.55;3.25;;;;;;;25.17;70.70;98615.31;5059379;28;20258;-74
2023/08/11 09:58:02;;;;;;;3.75;3.45;;;;;;;25.04;71.79;98616.09;5059226;28;20585;-74
2023/08/11 10:00:30;;;;;;;5.97;3.30;;;;;;;24.55;72.80;98615.78;5059611;28;20237;-74
2023/08/11 10:03:08;;;;;;;3.25;2.92;;;;;;;24.55;74.87;98615.78;5059248;28;20687;-74
2023/08/11 10:05:37;;;;;;;3.65;3.05;;;;;;;24.96;72.49;98619.53;5059690;28;20196;-74
2023/08/11 10:08:07;;;;;;;3.42;3.13;;;;;;;25.26;71.67;98616.25;5059674;28;20235;-74
2023/08/11 10:10:36;;;;;;;3.45;3.15;;;;;;;24.94;73.52;98624.44;5059717;28;20205;-74
2023/08/11 10:13:09;;;;;;;3.90;3.28;;;;;;;24.76;73.20;98619.84;5059667;28;20296;-74
2023/08/11 10:15:36;;;;;;;2.80;2.60;;;;;;;24.91;75.31;98619.59;5060212;28;20218;-74
2023/08/11 10:18:03;;;;;;;3.70;3.40;;;;;;;25.49;70.31;98615.31;5059235;28;20610;-74
2023/08/11 10:20:31;;;;;;;4.03;3.35;;;;;;;25.63;72.30;98621.56;5059485;28;20200;-74
2023/08/11 10:22:57;;;;;;;4.35;3.10;;;;;;;25.59;70.32;98613.19;5059353;28;20205;-74
2023/08/11 10:25:25;;;;;;;5.95;3.38;;;;;;;25.37;69.96;98620.44;5059142;28;20208;-74
2023/08/11 10:27:52;;;;;;;3.75;2.72;;;;;;;25.66;70.39;98604.63;5059606;28;20229;-74
2023/08/11 10:30:19;;;;;;;3.70;3.08;;;;;;;25.30;72.73;98611.84;5059472;28;20235;-74
2023/08/11 10:32:46;;;;;;;5.10;3.25;;;;;;;25.80;70.55;98610.88;5059444;28;20207;-74
2023/08/11 10:35:20;;;;;;;3.85;3.17;;;;;;;25.97;69.41;98614.63;5059547;28;20237;-75
2023/08/11 10:37:59;;;;;;;3.03;2.75;;;;;;;25.52;71.93;98610.09;5059488;28;20208;-74
2023/08/11 10:40:38;;;;;;;5.10;3.40;;;;;;;25.83;71.63;98611.06;5059090;28;20277;-74
2023/08/11 10:43:05;;;;;;;4.07;3.45;;;;;;;26.13;70.29;98615.09;5058939;28;20205;-75
2023/08/11 10:45:33;;;;;;;4.05;3.28;;;;;;;25.60;68.46;98616.75;5058926;28;20726;-74
2023/08/11 10:48:06;;;;;;;4.72;3.30;;;;;;;25.28;69.41;98617.59;5058414;28;20283;-74
2023/08/11 10:50:32;;;;;;;6.03;2.83;;;;;;;25.43;71.34;98622.78;5058797;28;20185;-74
2023/08/11 10:53:19;;;;;;;4.50;3.20;;;;;;;25.86;67.96;98612.38;5058751;28;20216;-74
2023/08/11 10:56:03;;;;;;;4.03;3.70;;;;;;;26.27;72.87;98621.31;5054894;28;20197;-74
2023/08/11 10:58:30;;;;;;;4.05;3.53;;;;;;;26.42;68.84;98613.63;5055844;28;20221;-75
2023/08/11 11:00:58;;;;;;;5.40;3.22;;;;;;;26.53;68.82;98615.00;5056700;28;20214;-74
2023/08/11 11:03:25;;;;;;;4.72;3.10;;;;;;;26.46;66.30;98616.56;5055790;28;20260;-74
2023/08/11 11:05:51;;;;;;;4.32;3.38;;;;;;;26.39;68.31;98611.53;5055375;28;20213;-74
2023/08/11 11:08:18;;;;;;;4.65;3.35;;;;;;;26.54;65.39;98615.78;5055927;28;20321;-74
2023/08/11 11:10:46;;;;;;;6.00;3.25;;;;;;;26.56;66.40;98608.94;5056047;28;20288;-74
2023/08/11 11:13:12;;;;;;;6.78;3.75;;;;;;;26.72;68.92;98603.94;5055696;28;20205;-74
2023/08/11 11:15:39;;;;;;;3.78;3.47;;;;;;;26.30;64.85;98607.91;5055448;28;20206;-74
2023/08/11 11:18:06;;;;;;;4.38;3.53;;;;;;;26.40;67.63;98607.69;5055280;28;20212;-74
2023/08/11 11:20:34;;;;;;;3.53;3.22;;;;;;;26.63;67.47;98606.59;5055218;28;20209;-74
2023/08/11 11:23:00;;;;;;;3.35;3.13;;;;;;;26.69;64.16;98602.63;5055493;28;20223;-74
2023/08/11 11:25:26;;;;;;;3.85;3.33;;;;;;;26.80;62.04;98595.84;5055521;28;20215;-74
2023/08/11 11:27:53;;;;;;;3.45;3.00;;;;;;;26.83;65.73;98597.91;5055360;28;20233;-75